createdAt,value
2019-05-02T00:00:05.000Z,46.2
2019-05-02T00:03:33.000Z,49.5
2019-05-02T00:07:00.000Z,50.5
2019-05-02T00:12:54.000Z,55
2019-05-02T00:16:20.000Z,52.9
2019-05-02T00:19:47.000Z,51.2
2019-05-02T00:23:15.000Z,49.6
2019-05-02T00:26:49.000Z,51.8
2019-05-02T00:30:24.000Z,54.6
2019-05-02T00:34:05.000Z,53.6
2019-05-02T00:37:40.000Z,53.5
2019-05-02T00:41:16.000Z,55.9
2019-05-02T00:44:53.000Z,55.2
2019-05-02T00:48:30.000Z,52.8
2019-05-02T00:52:06.000Z,47.8
2019-05-02T00:55:43.000Z,49
2019-05-02T00:59:20.000Z,57
2019-05-02T01:02:50.000Z,54.8
2019-05-02T01:06:27.000Z,55
2019-05-02T01:09:58.000Z,51.3
2019-05-02T01:21:21.000Z,62.5
2019-05-02T01:24:46.000Z,59.3
2019-05-02T01:28:10.000Z,61.5
2019-05-02T01:31:35.000Z,57.1
2019-05-02T01:35:01.000Z,60
2019-05-02T01:38:23.000Z,58.2
2019-05-02T01:41:49.000Z,64.6
2019-05-02T01:45:20.000Z,61.7
2019-05-02T01:48:51.000Z,60.7
2019-05-02T01:52:14.000Z,55.4
2019-05-02T01:55:43.000Z,57.9
2019-05-02T01:59:13.000Z,52.9
2019-05-02T02:02:40.000Z,58.9
2019-05-02T02:06:14.000Z,62.8
2019-05-02T02:09:37.000Z,62.4
2019-05-02T02:13:02.000Z,63.4
2019-05-02T02:16:25.000Z,65.7
2019-05-02T02:19:58.000Z,63.9
2019-05-02T02:23:31.000Z,61.8
2019-05-02T02:26:56.000Z,60.4
2019-05-02T02:30:26.000Z,63.3
2019-05-02T02:33:50.000Z,59.6
2019-05-02T02:37:14.000Z,69
2019-05-02T02:40:40.000Z,65.1
2019-05-02T02:44:05.000Z,62.9
2019-05-02T02:47:30.000Z,62.8
2019-05-02T02:50:57.000Z,65.7
2019-05-02T02:54:27.000Z,61
2019-05-02T02:58:03.000Z,65.5
2019-05-02T03:01:28.000Z,64.8
2019-05-02T03:04:53.000Z,60.9
2019-05-02T03:08:21.000Z,63.5
2019-05-02T03:11:49.000Z,69
2019-05-02T03:15:25.000Z,68.2
2019-05-02T03:18:51.000Z,70.4
2019-05-02T03:22:20.000Z,75.2
2019-05-02T03:26:04.000Z,71.3
2019-05-02T03:29:37.000Z,76.5
2019-05-02T03:33:22.000Z,69.1
2019-05-02T03:36:52.000Z,68
2019-05-02T03:40:32.000Z,74.7
2019-05-02T03:44:10.000Z,73.2
2019-05-02T03:47:52.000Z,66.5
2019-05-02T03:51:23.000Z,61
2019-05-02T03:54:49.000Z,69.5
2019-05-02T03:58:17.000Z,69.4
2019-05-02T04:01:59.000Z,72.8
2019-05-02T04:05:37.000Z,72.4
2019-05-02T04:09:11.000Z,71.3
2019-05-02T04:12:42.000Z,72.2
2019-05-02T04:16:25.000Z,74.8
2019-05-02T04:20:13.000Z,82
2019-05-02T04:23:43.000Z,78
2019-05-02T04:27:32.000Z,78
2019-05-02T04:31:03.000Z,78.8
2019-05-02T04:34:33.000Z,82
2019-05-02T04:38:19.000Z,84.3
2019-05-02T04:42:10.000Z,86.4
2019-05-02T04:45:55.000Z,79.1
2019-05-02T04:49:56.000Z,87.2
2019-05-02T04:54:02.000Z,90.4
2019-05-02T04:58:09.000Z,91.1
2019-05-02T05:02:10.000Z,94.2
2019-05-02T05:05:57.000Z,96.7
2019-05-02T05:09:47.000Z,94.8
2019-05-02T05:13:33.000Z,82.3
2019-05-02T05:17:11.000Z,75.5
2019-05-02T05:20:54.000Z,96.5
2019-05-02T05:24:46.000Z,83.7
2019-05-02T05:28:25.000Z,72.9
2019-05-02T05:32:13.000Z,69
2019-05-02T05:35:50.000Z,62.6
2019-05-02T05:39:25.000Z,65.9
2019-05-02T05:43:13.000Z,72.4
2019-05-02T05:46:54.000Z,66.1
2019-05-02T05:50:38.000Z,71.5
2019-05-02T05:54:18.000Z,69.3
2019-05-02T05:58:05.000Z,61.5
2019-05-02T06:01:54.000Z,57.7
2019-05-02T06:05:47.000Z,70.3
2019-05-02T06:09:33.000Z,63.4
2019-05-02T06:13:20.000Z,68.1
2019-05-02T06:22:19.000Z,70.3
2019-05-02T06:25:42.000Z,72.2
2019-05-02T06:29:05.000Z,71.2
2019-05-02T06:32:36.000Z,64
2019-05-02T06:36:10.000Z,67.8
2019-05-02T06:39:43.000Z,60.2
2019-05-02T06:43:13.000Z,63.9
2019-05-02T06:46:37.000Z,65.8
2019-05-02T06:50:01.000Z,72.5
2019-05-02T06:53:25.000Z,71.8
2019-05-02T06:56:53.000Z,73.1
2019-05-02T07:00:16.000Z,78.2
2019-05-02T07:03:55.000Z,73.3
2019-05-02T07:07:21.000Z,88
2019-05-02T07:10:53.000Z,74
2019-05-02T07:14:22.000Z,87.7
2019-05-02T07:17:45.000Z,105
2019-05-02T07:21:11.000Z,114.3
2019-05-02T07:24:41.000Z,97.3
2019-05-02T07:28:13.000Z,99.3
2019-05-02T07:31:39.000Z,109.9
2019-05-02T07:35:06.000Z,101.2
2019-05-02T07:38:33.000Z,126
2019-05-02T07:41:59.000Z,126.1
2019-05-02T07:45:24.000Z,129.9
2019-05-02T07:48:56.000Z,117.1
2019-05-02T07:52:20.000Z,150.2
2019-05-02T07:55:45.000Z,135.9
2019-05-02T07:59:10.000Z,126
2019-05-02T08:02:34.000Z,124.6
2019-05-02T08:06:07.000Z,124.7
2019-05-02T08:09:36.000Z,121.6
2019-05-02T08:13:03.000Z,119.5
2019-05-02T08:16:36.000Z,116.2
2019-05-02T08:20:07.000Z,128.5
2019-05-02T08:23:42.000Z,122.7
2019-05-02T08:27:08.000Z,110.3
2019-05-02T08:30:51.000Z,121.5
2019-05-02T08:34:21.000Z,113.2
2019-05-02T08:43:30.000Z,108.1
2019-05-02T08:47:00.000Z,107.4
2019-05-02T08:50:37.000Z,102.6
2019-05-02T08:54:00.000Z,94.9
2019-05-02T08:57:23.000Z,98.2
2019-05-02T09:00:52.000Z,96.1
2019-05-02T09:04:20.000Z,105.7
2019-05-02T09:07:59.000Z,95.1
2019-05-02T09:11:29.000Z,96.5
2019-05-02T09:14:52.000Z,92.6
2019-05-02T09:18:21.000Z,89.9
2019-05-02T09:22:03.000Z,93.4
2019-05-02T09:25:38.000Z,89.4
2019-05-02T09:29:02.000Z,91.3
2019-05-02T09:32:26.000Z,94.1
2019-05-02T09:35:57.000Z,85.1
2019-05-02T09:39:20.000Z,89.5
2019-05-02T09:42:53.000Z,82.8
2019-05-02T09:46:23.000Z,75
2019-05-02T09:50:00.000Z,75.1
2019-05-02T09:53:25.000Z,72.5
2019-05-02T09:56:51.000Z,72.9
2019-05-02T10:00:17.000Z,84.9
2019-05-02T10:03:49.000Z,81.9
2019-05-02T10:07:13.000Z,82.5
2019-05-02T10:10:41.000Z,76.1
2019-05-02T10:14:06.000Z,72.6
2019-05-02T10:17:32.000Z,71.9
2019-05-02T10:21:07.000Z,75
2019-05-02T10:24:37.000Z,77.3
2019-05-02T10:28:02.000Z,76.6
2019-05-02T10:31:31.000Z,66.9
2019-05-02T10:34:58.000Z,70.9
2019-05-02T10:38:24.000Z,68.5
2019-05-02T10:41:52.000Z,62.6
2019-05-02T10:45:27.000Z,54.1
2019-05-02T10:48:53.000Z,59
2019-05-02T10:52:23.000Z,54.3
2019-05-02T10:55:57.000Z,57.3
2019-05-02T10:59:29.000Z,48.3
2019-05-02T11:02:56.000Z,43
2019-05-02T11:06:26.000Z,50.2
2019-05-02T11:10:02.000Z,48.1
2019-05-02T11:13:30.000Z,56.9
2019-05-02T11:16:58.000Z,54.8
2019-05-02T11:20:38.000Z,57.9
2019-05-02T11:24:13.000Z,60.5
2019-05-02T11:27:49.000Z,58.8
2019-05-02T11:31:25.000Z,58.4
2019-05-02T11:35:01.000Z,50.2
2019-05-02T11:50:11.000Z,64.8
2019-05-02T11:53:35.000Z,55.4
2019-05-02T11:56:59.000Z,61.6
2019-05-02T12:00:22.000Z,62.3
2019-05-02T12:03:53.000Z,57.7
2019-05-02T12:07:25.000Z,50.6
2019-05-02T12:10:49.000Z,53.4
2019-05-02T12:14:12.000Z,55.5
2019-05-02T12:17:37.000Z,54.7
2019-05-02T12:21:06.000Z,54.4
2019-05-02T12:24:29.000Z,50
2019-05-02T12:28:04.000Z,48.3
2019-05-02T12:31:30.000Z,50
2019-05-02T12:34:56.000Z,45.4
2019-05-02T12:38:21.000Z,50.5
2019-05-02T12:41:47.000Z,51.1
2019-05-02T12:45:11.000Z,44.4
2019-05-02T12:48:39.000Z,47.5
2019-05-02T12:52:04.000Z,52.8
2019-05-02T12:55:29.000Z,43.6
2019-05-02T12:58:53.000Z,44.8
2019-05-02T13:07:04.000Z,43.2
2019-05-02T13:10:28.000Z,44.2
2019-05-02T13:13:53.000Z,47.7
2019-05-02T13:17:17.000Z,48.6
2019-05-02T13:20:40.000Z,41.6
2019-05-02T13:24:08.000Z,41.5
2019-05-02T13:27:34.000Z,44.8
2019-05-02T13:31:05.000Z,35.7
2019-05-02T13:34:30.000Z,35.6
2019-05-02T13:36:49.000Z,36.2
2019-05-02T13:40:13.000Z,27.2
2019-05-02T13:43:38.000Z,33.7
2019-05-02T13:47:01.000Z,29.7
2019-05-02T13:50:25.000Z,32.5
2019-05-02T13:53:48.000Z,40
2019-05-02T13:57:15.000Z,33.3
2019-05-02T14:00:39.000Z,34.8
2019-05-02T14:04:06.000Z,41.2
2019-05-02T14:07:30.000Z,27.6
2019-05-02T14:10:56.000Z,26.4
2019-05-02T14:14:19.000Z,32
2019-05-02T14:17:42.000Z,33.1
2019-05-02T14:21:26.000Z,31.4
2019-05-02T14:25:20.000Z,30.2
2019-05-02T14:28:45.000Z,26.8
2019-05-02T14:32:09.000Z,25.5
2019-05-02T14:35:42.000Z,19.7
2019-05-02T14:39:09.000Z,20.9
2019-05-02T14:42:32.000Z,21.8
2019-05-02T14:45:58.000Z,24.9
2019-05-02T14:49:23.000Z,26.2
2019-05-02T14:52:48.000Z,26.8
2019-05-02T14:56:17.000Z,28.1
2019-05-02T15:03:19.000Z,28.1
2019-05-02T15:06:46.000Z,28.2
2019-05-02T15:10:11.000Z,30.4
2019-05-02T15:13:40.000Z,30.3
2019-05-02T15:17:08.000Z,32.9
2019-05-02T15:20:32.000Z,29.6
2019-05-02T15:24:00.000Z,29.5
2019-05-02T15:27:26.000Z,27.5
2019-05-02T15:31:00.000Z,30.5
2019-05-02T15:34:38.000Z,32.9
2019-05-02T15:38:09.000Z,32.9
2019-05-02T15:42:19.000Z,37
2019-05-02T15:45:46.000Z,30
2019-05-02T15:49:19.000Z,31.2
2019-05-02T15:52:53.000Z,31
2019-05-02T15:56:29.000Z,30.6
2019-05-02T15:59:55.000Z,27.7
2019-05-02T16:03:20.000Z,26.3
2019-05-02T16:06:57.000Z,23.4
2019-05-02T16:12:49.000Z,24.2
2019-05-02T16:16:30.000Z,24.1
2019-05-02T16:20:09.000Z,23.4
2019-05-02T16:23:37.000Z,22.9
2019-05-02T16:27:11.000Z,23.1
2019-05-02T16:30:50.000Z,23.3
2019-05-02T16:34:20.000Z,21.6
2019-05-02T16:37:57.000Z,22.1
2019-05-02T16:41:22.000Z,23
2019-05-02T16:44:56.000Z,20.9
2019-05-02T16:48:33.000Z,20.7
2019-05-02T16:52:13.000Z,21.7
2019-05-02T16:55:46.000Z,20.5
2019-05-02T16:59:21.000Z,20.6
2019-05-02T17:03:01.000Z,19.2
2019-05-02T17:06:35.000Z,19.6
2019-05-02T17:10:14.000Z,19.3
2019-05-02T17:13:47.000Z,19.7
2019-05-02T17:17:27.000Z,19
2019-05-02T17:21:04.000Z,19.3
2019-05-02T17:24:54.000Z,18.7
2019-05-02T17:28:32.000Z,21.4
2019-05-02T17:32:20.000Z,20.3
2019-05-02T17:35:57.000Z,17.6
2019-05-02T17:39:36.000Z,18.4
2019-05-02T17:43:20.000Z,17.3
2019-05-02T17:47:03.000Z,19
2019-05-02T17:50:50.000Z,17.8
2019-05-02T17:54:30.000Z,17.9
2019-05-02T17:58:18.000Z,18
2019-05-02T18:01:53.000Z,20
2019-05-02T18:05:34.000Z,18.5
2019-05-02T18:09:18.000Z,17.7
2019-05-02T18:13:02.000Z,16.4
2019-05-02T18:16:42.000Z,18.3
2019-05-02T18:20:35.000Z,17.2
2019-05-02T18:24:25.000Z,17.1
2019-05-02T18:33:32.000Z,16.4
2019-05-02T18:36:59.000Z,16.2
2019-05-02T18:40:22.000Z,15.8
2019-05-02T18:43:48.000Z,14.9
2019-05-02T18:47:11.000Z,16.9
2019-05-02T18:50:42.000Z,14.7
2019-05-02T18:54:09.000Z,15.4
2019-05-02T18:57:31.000Z,14.8
2019-05-02T19:00:56.000Z,16
2019-05-02T19:04:28.000Z,14.7
2019-05-02T19:07:57.000Z,15.4
2019-05-02T19:11:25.000Z,15.7
2019-05-02T19:14:59.000Z,16
2019-05-02T19:18:23.000Z,16.1
2019-05-02T19:21:49.000Z,15
2019-05-02T19:25:13.000Z,14.5
2019-05-02T19:28:43.000Z,14.8
2019-05-02T19:32:08.000Z,15.9
2019-05-02T19:35:40.000Z,15.2
2019-05-02T19:39:11.000Z,15.4
2019-05-02T19:42:36.000Z,14.6
2019-05-02T19:46:00.000Z,17.6
2019-05-02T19:49:26.000Z,16.6
2019-05-02T19:52:49.000Z,16.1
2019-05-02T19:56:20.000Z,18.4
2019-05-02T20:00:00.000Z,19.7
2019-05-02T20:03:27.000Z,19.4
2019-05-02T20:06:55.000Z,19
2019-05-02T20:10:24.000Z,20.4
2019-05-02T20:13:52.000Z,18.7
2019-05-02T20:17:27.000Z,22.8
2019-05-02T20:20:51.000Z,22.1
2019-05-02T20:24:19.000Z,22.4
2019-05-02T20:27:47.000Z,22.7
2019-05-02T20:31:14.000Z,25.1
2019-05-02T20:34:42.000Z,28.1
2019-05-02T20:38:10.000Z,26.6
2019-05-02T20:41:37.000Z,27.1
2019-05-02T20:45:14.000Z,27.1
2019-05-02T20:48:40.000Z,30
2019-05-02T20:52:06.000Z,31.8
2019-05-02T20:55:32.000Z,27.8
2019-05-02T20:58:58.000Z,31.2
2019-05-02T21:02:31.000Z,25.4
2019-05-02T21:06:01.000Z,31.9
2019-05-02T21:17:26.000Z,29
2019-05-02T21:20:49.000Z,29.2
2019-05-02T21:24:15.000Z,28.1
2019-05-02T21:27:38.000Z,29.4
2019-05-02T21:31:01.000Z,28.7
2019-05-02T21:34:26.000Z,24.6
2019-05-02T21:37:49.000Z,19.1
2019-05-02T21:41:13.000Z,17.3
2019-05-02T21:44:37.000Z,16
2019-05-02T21:48:01.000Z,17.3
2019-05-02T21:51:25.000Z,16
2019-05-02T21:54:49.000Z,18.4
2019-05-02T21:58:12.000Z,23.4
2019-05-02T22:01:38.000Z,23.6
2019-05-02T22:05:02.000Z,26
2019-05-02T22:08:29.000Z,27.7
2019-05-02T22:11:53.000Z,27.4
2019-05-02T22:15:20.000Z,25.4
2019-05-02T22:18:42.000Z,25.6
2019-05-02T22:22:09.000Z,23.4
2019-05-02T22:25:32.000Z,20.4
2019-05-02T22:28:57.000Z,19.7
2019-05-02T22:32:23.000Z,20.2
2019-05-02T22:35:49.000Z,18.5
2019-05-02T22:39:18.000Z,20.8
2019-05-02T22:42:43.000Z,19.5
2019-05-02T22:46:08.000Z,20.6
2019-05-02T22:49:32.000Z,21.5
2019-05-02T22:52:59.000Z,19.6
2019-05-02T22:56:28.000Z,20.2
2019-05-02T22:59:53.000Z,19.3
2019-05-02T23:03:21.000Z,20.9
2019-05-02T23:06:49.000Z,20.8
2019-05-02T23:10:15.000Z,17.4
2019-05-02T23:13:38.000Z,17.2
2019-05-02T23:17:03.000Z,18
2019-05-02T23:22:40.000Z,16.4
2019-05-02T23:26:07.000Z,15.9
2019-05-02T23:29:33.000Z,14.1
2019-05-02T23:33:04.000Z,14.4
2019-05-02T23:36:37.000Z,14.2
2019-05-02T23:40:06.000Z,16
2019-05-02T23:43:36.000Z,12.3
2019-05-02T23:47:07.000Z,13
2019-05-02T23:50:37.000Z,15.2
2019-05-02T23:54:06.000Z,15.8
2019-05-02T23:57:38.000Z,18.3
